createdAt,value
2023-01-05T00:01:18.332Z,8.573190166374934
2023-01-05T00:04:17.735Z,8.517955394146792
2023-01-05T00:07:17.243Z,8.513459542073543
2023-01-05T00:31:16.589Z,8.453728957103248
2023-01-05T00:34:16.811Z,8.403632367777846
2023-01-05T00:37:16.771Z,8.388218038166906
2023-01-05T00:41:16.705Z,8.385648983486409
2023-01-05T00:44:17.006Z,8.358031650266275
2023-01-05T00:47:17.460Z,8.30793511379161
2023-01-05T00:51:16.381Z,8.341975065050155
2023-01-05T00:54:16.762Z,8.299585693735661
2023-01-05T00:57:17.135Z,8.234074886121471
2023-01-05T01:01:16.853Z,8.234717148711571
2023-01-05T01:04:18.220Z,8.178840320385007
2023-01-05T01:07:17.125Z,8.161499242730496
2023-01-05T01:11:17.343Z,8.214164748083931
2023-01-05T01:14:17.663Z,8.166637339467707
2023-01-05T01:17:17.237Z,8.198108188333663
2023-01-05T01:21:16.408Z,8.196181401354625
2023-01-05T01:24:18.542Z,8.232148098378456
2023-01-05T01:27:16.785Z,8.232790360954914
2023-01-05T01:31:16.608Z,8.224440947815674
2023-01-05T01:34:17.187Z,8.209668911067364
2023-01-05T01:37:16.878Z,8.198108188333663
2023-01-05T01:41:16.877Z,8.227652260470586
2023-01-05T01:44:52.905Z,8.239855249596076
2023-01-05T01:47:23.735Z,8.217376060375045
2023-01-05T01:51:20.520Z,8.193612352112904
2023-01-05T01:54:18.264Z,8.173702222956582
2023-01-05T01:57:17.179Z,8.135808763410022
2023-01-05T02:01:17.005Z,8.133239715878153
2023-01-05T02:04:17.549Z,8.126817097366802
2023-01-05T02:07:16.974Z,8.086996872746386
2023-01-05T02:11:29.376Z,8.037542747150383
2023-01-05T02:14:26.270Z,8.020843957583656
2023-01-05T02:17:27.928Z,8.004145171091022
2023-01-05T02:21:26.728Z,7.984235083521344
2023-01-05T02:24:39.678Z,7.981023779483894
2023-01-05T02:27:44.969Z,7.9476262242337725
2023-01-05T02:31:21.092Z,7.920651284739233
2023-01-05T02:34:24.624Z,7.885326971341056
2023-01-05T02:37:25.456Z,7.817247424322704
2023-01-05T02:41:22.387Z,7.793483820884376
2023-01-05T02:44:17.340Z,7.790272523599924
2023-01-05T02:47:37.643Z,7.716412717435105
2023-01-05T02:51:22.730Z,7.717054976359941
2023-01-05T02:54:23.522Z,7.611724573468382
2023-01-05T02:57:21.717Z,7.61236683165198
2023-01-05T03:01:24.018Z,7.648975555634024
2023-01-05T03:04:23.204Z,7.580896186003519
2023-01-05T03:21:16.318Z,7.615578122638181
2023-01-05T03:41:19.641Z,7.614293606230058
2023-01-05T03:44:16.516Z,7.606586508163309
2023-01-05T03:47:16.636Z,7.546856520349047
2023-01-05T03:51:16.962Z,7.556490386691076
2023-01-05T03:54:16.852Z,7.514743639931931
2023-01-05T03:57:17.711Z,7.530157821113335
2023-01-05T04:01:16.666Z,7.4678588549388225
2023-01-05T04:04:16.653Z,7.447306628061051
2023-01-05T04:07:16.788Z,7.427396662713818
2023-01-05T04:11:18.495Z,7.416478296475543
2023-01-05T04:14:16.572Z,7.372162588177252
2023-01-05T04:17:16.447Z,7.348399101340692
2023-01-05T04:21:16.495Z,7.306010194332339
2023-01-05T04:24:16.774Z,7.271328376059318
2023-01-05T04:27:16.829Z,7.285458004125394
2023-01-05T04:31:16.328Z,7.247564915639032
2023-01-05T04:34:16.759Z,7.210956353660731
2023-01-05T04:37:16.585Z,7.184623888391161
2023-01-05T04:41:16.436Z,7.274539654971977
2023-01-05T04:44:16.846Z,7.200680268743599
2023-01-05T04:47:16.794Z,7.149299861620238
2023-01-05T04:51:16.219Z,7.144161822508613
2023-01-05T04:54:17.777Z,7.123609668972494
2023-01-05T04:57:16.480Z,7.067091270758828
2023-01-05T05:01:17.030Z,7.121682904817225
2023-01-05T05:04:17.143Z,7.097277229059637
2023-01-05T05:07:17.587Z,7.085074393643299
2023-01-05T05:11:16.816Z,7.121040650107898
2023-01-05T05:14:17.238Z,7.112049084654791
2023-01-05T05:17:17.115Z,7.085716648097969
2023-01-05T05:21:16.161Z,7.116544867269932
2023-01-05T05:24:16.364Z,7.067091270758828
2023-01-05T05:27:16.501Z,7.0690180337544914
2023-01-05T05:31:16.666Z,7.054246185166994
2023-01-05T05:34:16.998Z,7.038832084857859
2023-01-05T05:37:16.884Z,7.036905322503389
2023-01-05T05:41:17.128Z,7.023417987168068
2023-01-05T05:44:17.462Z,7.026629257304103
2023-01-05T05:47:17.355Z,7.006719384293319
2023-01-05T05:51:16.704Z,7.046539134685008
2023-01-05T05:54:17.270Z,7.0131419234967325
2023-01-05T05:57:17.895Z,6.966257397768731
2023-01-05T06:01:16.630Z,6.990663038274306
2023-01-05T06:04:18.728Z,6.9572658476588005
2023-01-05T06:07:16.975Z,6.9399250035352456
2023-01-05T06:11:16.799Z,6.968826412249564
2023-01-05T06:14:17.419Z,6.919372896274217
2023-01-05T06:17:17.104Z,6.909096844389933
2023-01-05T06:21:17.030Z,6.9861672618982995
2023-01-05T06:24:17.354Z,6.920015149555638
2023-01-05T06:27:17.201Z,6.925795429293066
2023-01-05T06:31:16.618Z,6.928364442627935
2023-01-05T06:34:16.872Z,6.984882754403225
2023-01-05T06:37:16.988Z,6.9694686658811404
2023-01-05T06:41:16.217Z,6.918730642997343
2023-01-05T06:44:16.491Z,6.894325021845816
2023-01-05T06:47:17.191Z,6.875057430838297
2023-01-05T06:51:16.790Z,6.9309334560355635
2023-01-05T06:54:17.415Z,6.894325021845816
2023-01-05T06:57:17.403Z,6.9245109226529165
2023-01-05T07:01:16.937Z,6.937355989872958
2023-01-05T07:04:17.432Z,6.928364442627935
2023-01-05T07:07:17.089Z,6.9437785241651
2023-01-05T07:11:16.837Z,6.959834861884974
2023-01-05T07:14:17.799Z,6.934786976283431
2023-01-05T07:17:17.121Z,6.939282750112852
2023-01-05T07:21:16.787Z,6.952127819424732
2023-01-05T07:24:17.103Z,6.923226416030957
2023-01-05T07:27:16.963Z,6.934144722897417
2023-01-05T07:31:16.286Z,6.981671485745119
2023-01-05T07:34:16.416Z,6.960477115452886
2023-01-05T07:37:16.345Z,6.98102923202714
2023-01-05T07:41:16.274Z,7.002223607121505
2023-01-05T07:44:16.647Z,7.0131419234967325
2023-01-05T07:47:16.611Z,7.0311250356855455
2023-01-05T07:51:16.124Z,7.060668727735537
2023-01-05T07:54:16.300Z,7.090854683899034
2023-01-05T07:57:16.353Z,7.108837811494686
2023-01-05T08:01:16.427Z,7.137097019205339
2023-01-05T08:04:16.996Z,7.169209765926735
2023-01-05T08:07:16.440Z,7.22187469516075
2023-01-05T08:11:17.810Z,7.317570803370108
2023-01-05T08:14:17.106Z,7.3496836139835064
2023-01-05T08:17:17.026Z,7.413909269316354
2023-01-05T08:21:16.447Z,7.539149428012115
2023-01-05T08:24:16.595Z,7.5969526365007365
2023-01-05T08:27:16.700Z,7.696502693020738
2023-01-05T08:31:20.022Z,7.825596799981668
2023-01-05T08:34:17.415Z,7.917439982952783
2023-01-05T08:37:17.379Z,8.002218388231995
2023-01-05T08:41:18.397Z,8.119109955753448
2023-01-05T08:44:16.982Z,8.226367735394978
2023-01-05T08:47:18.411Z,8.308577376904669
2023-01-05T08:51:17.669Z,8.429322922950178
2023-01-05T08:54:17.314Z,8.514101806641794
2023-01-05T08:57:17.196Z,8.616221930837492
2023-01-05T09:01:18.514Z,8.712561776032453
2023-01-05T09:04:16.862Z,8.829454258923942
2023-01-05T09:07:16.601Z,8.91680258623237
2023-01-05T09:11:19.180Z,9.079296389484899
2023-01-05T09:14:18.256Z,9.151872767188252
2023-01-05T09:17:17.041Z,9.224449202958294
2023-01-05T09:21:17.159Z,9.372813601894086
2023-01-05T09:24:17.245Z,9.460804723687852
2023-01-05T09:27:16.817Z,9.56742181774398
2023-01-05T09:31:18.356Z,9.652201765107838
2023-01-05T09:34:17.001Z,9.779371834719587
2023-01-05T09:37:16.913Z,9.865436528439114
2023-01-05T09:41:21.927Z,9.997745097439566
2023-01-05T09:44:27.601Z,10.104362822575876
2023-01-05T09:47:26.518Z,10.211622949609591
2023-01-05T09:51:16.442Z,10.387606905834764
2023-01-05T09:54:18.956Z,10.481379518285394
2023-01-05T09:57:19.638Z,10.60983530912199
2023-01-05T10:01:18.415Z,10.752421449963368
2023-01-05T10:04:25.221Z,10.86353603040925
2023-01-05T10:07:23.695Z,10.99135008028279
2023-01-05T10:21:27.205Z,11.779433652588432
2023-01-05T10:24:27.024Z,11.955420650318501
2023-01-05T10:27:25.561Z,12.162880213826792
2023-01-05T10:31:22.954Z,12.48209910660671
2023-01-05T10:34:22.571Z,12.769846676792167
2023-01-05T10:37:33.277Z,13.002999953256586
2023-01-05T10:41:26.393Z,13.259918858181118
2023-01-05T10:44:39.464Z,13.421778141867616
2023-01-05T10:47:17.432Z,13.566295603473645
2023-01-05T10:51:17.611Z,13.871388778437176
2023-01-05T10:54:25.903Z,14.127025534004497
2023-01-05T10:57:49.442Z,14.29980555816519
2023-01-05T11:01:23.730Z,14.557370442984757
2023-01-05T11:04:34.881Z,14.751347472384804
2023-01-05T11:07:17.339Z,14.951105707656188
2023-01-05T11:11:22.382Z,15.234364923933754
2023-01-05T11:14:16.851Z,15.425774146771072
2023-01-05T11:17:21.037Z,15.567083228115006
2023-01-05T11:21:18.320Z,15.757208521204666
2023-01-05T11:24:28.502Z,16.00835436709758
2023-01-05T11:27:24.035Z,16.16957623558701
2023-01-05T11:31:17.162Z,16.40145360854449
2023-01-05T11:34:27.189Z,16.484955300725506
2023-01-05T11:37:24.421Z,16.51193278693254
2023-01-05T11:41:20.664Z,16.65773981551174
2023-01-05T11:44:21.872Z,16.703344705157452
2023-01-05T11:47:21.825Z,16.546618138128633
2023-01-05T11:51:33.144Z,16.614061914525518
2023-01-05T11:54:34.391Z,16.612777270697187
2023-01-05T11:57:18.646Z,16.596076902584173
2023-01-05T12:01:41.870Z,16.66159374896124
2023-01-05T12:04:54.276Z,16.680221096274998
2023-01-05T12:07:28.374Z,16.772073244126297
2023-01-05T12:11:19.213Z,16.75794213840418
2023-01-05T12:14:32.245Z,16.741241743570207
2023-01-05T12:17:24.863Z,16.74316871204801
2023-01-05T12:21:22.843Z,16.642324083350832
2023-01-05T12:24:36.135Z,16.605711729966515
2023-01-05T12:27:33.939Z,16.50679421751274
2023-01-05T12:34:00.495Z,16.448343010846656
2023-01-05T12:34:33.207Z,16.43485427619462
2023-01-05T12:37:31.143Z,16.39374576390992
2023-01-05T12:41:43.641Z,16.34814102988785
2023-01-05T12:44:38.044Z,16.30060935967049
2023-01-05T12:47:31.798Z,16.30960183590978
2023-01-05T12:51:22.243Z,16.23830437020815
2023-01-05T12:54:30.479Z,16.19013043861487
2023-01-05T12:57:25.550Z,16.11433683802352
2023-01-05T13:01:22.818Z,16.050105022683056
2023-01-05T13:04:37.846Z,16.04368184365012
2023-01-05T13:07:23.181Z,16.041754890028916
2023-01-05T13:11:23.683Z,15.955042019434405
2023-01-05T13:14:19.684Z,15.89273726728652
2023-01-05T13:17:24.868Z,15.839424987562598
2023-01-05T13:21:18.238Z,15.809236120165679
2023-01-05T13:24:30.114Z,15.771981787012283
2023-01-05T13:27:17.654Z,15.702611690179856
2023-01-05T13:32:35.152Z,15.758493152918527
2023-01-05T13:34:29.981Z,15.75528157366798
2023-01-05T13:37:51.006Z,15.788682003430676
2023-01-05T13:41:29.951Z,15.799601377366344
2023-01-05T13:51:56.038Z,15.988442522738842
2023-01-05T17:51:16.290Z,12.975381214289609
2023-01-05T17:54:16.376Z,12.77113126620543
2023-01-05T17:57:16.187Z,12.7807656873847
2023-01-05T18:01:17.511Z,12.780123392607583
2023-01-05T18:04:17.107Z,12.848848959547832
2023-01-05T18:07:17.531Z,12.860410274990135
2023-01-05T18:11:17.638Z,12.787830930233122
2023-01-05T18:14:16.518Z,12.85206043591179
2023-01-05T18:17:16.754Z,12.876467659993159
2023-01-05T18:21:16.435Z,12.76213914069458
2023-01-05T18:24:16.851Z,12.753147016075037
2023-01-05T18:27:17.048Z,12.670933346595211
2023-01-05T18:31:16.818Z,12.686990698060617
2023-01-05T18:34:17.449Z,12.652306822456012
2023-01-05T18:37:21.806Z,12.69919428707517
2023-01-05T18:41:22.436Z,12.63560718337576
2023-01-05T18:44:16.699Z,12.585508284579555
2023-01-05T18:47:16.650Z,12.674787110687703
2023-01-05T18:51:16.376Z,12.638818652190912
2023-01-05T18:54:16.714Z,12.577800764143467
2023-01-05T18:57:16.689Z,12.527701897270527
2023-01-05T19:01:17.811Z,12.46732637651876
2023-01-05T19:04:16.947Z,12.446773016919906
2023-01-05T19:07:16.550Z,12.458976573620111
2023-01-05T19:11:18.358Z,12.500725595798576
2023-01-05T19:14:16.643Z,12.412089233156076
2023-01-05T19:17:16.527Z,12.41465840186902
2023-01-05T19:21:16.295Z,12.464757206314243
2023-01-05T19:24:19.040Z,12.381901506229132
2023-01-05T19:27:16.497Z,12.437138631210928
2023-01-05T19:31:18.189Z,12.361990457796491
2023-01-05T19:34:19.622Z,12.284915472805732
2023-01-05T19:37:17.275Z,12.347217747267223
2023-01-05T19:41:19.705Z,12.317672333425525
2023-01-05T19:44:18.910Z,12.295192133687669
2023-01-05T19:47:17.089Z,12.24509342288402
2023-01-05T19:51:18.215Z,12.21426346075641
2023-01-05T19:54:16.886Z,12.196921611663948
2023-01-05T19:57:16.402Z,12.18343350910618
2023-01-05T20:01:16.038Z,12.226466986179094
2023-01-05T20:04:16.610Z,12.151961277603641
2023-01-05T20:07:16.631Z,12.181506637475923
2023-01-05T20:11:16.099Z,12.173799151364165
2023-01-05T20:14:18.539Z,12.129481118929471
2023-01-05T20:17:16.260Z,12.058829227933893
2023-01-05T20:21:16.699Z,12.144253794002088
2023-01-05T20:24:20.145Z,12.144253794002088
2023-01-05T20:27:18.982Z,12.043414277210832
2023-01-05T20:31:19.517Z,12.035064513329507
2023-01-05T20:34:19.622Z,12.06460983513034
2023-01-05T20:37:17.197Z,12.074244181276299
2023-01-05T20:41:18.768Z,12.044056566771996
2023-01-05T20:44:19.733Z,12.027999329107114
2023-01-05T20:47:17.172Z,11.914956456382061
2023-01-05T20:51:17.855Z,11.973404742305956
2023-01-05T20:54:17.313Z,11.933582829126772
2023-01-05T20:57:17.168Z,11.871923127079299
2023-01-05T21:01:17.384Z,11.84366244431376
2023-01-05T21:04:18.543Z,11.69272485589354
2023-01-05T21:07:17.465Z,11.69914772688062
2023-01-05T21:11:17.802Z,11.714562619104981
2023-01-05T21:14:16.690Z,11.704286023997701
2023-01-05T21:17:16.879Z,11.705570598322447
2023-01-05T21:21:18.864Z,11.709424321405823
2023-01-05T21:24:16.912Z,11.659325934091248
2023-01-05T21:27:16.543Z,11.604731569161322
2023-01-05T21:31:19.159Z,11.629138457657337
2023-01-05T21:34:16.609Z,11.575186397136076
2023-01-05T21:37:16.762Z,11.501965794894295
2023-01-05T21:41:16.500Z,11.501323509171197
2023-01-05T21:44:17.463Z,11.490404652574307
2023-01-05T21:47:16.875Z,11.48077036843315
2023-01-05T22:01:17.005Z,11.399842422042639
2023-01-05T22:04:17.199Z,11.336898513651978
2023-01-05T22:07:16.960Z,11.38057387401932
2023-01-05T22:11:16.694Z,11.326621961327328
2023-01-05T22:14:17.172Z,11.331760237344133
2023-01-05T22:17:16.989Z,11.338183082774412
2023-01-05T22:21:17.262Z,11.348459636408734
2023-01-05T22:24:16.919Z,11.293865458561868
2023-01-05T22:27:16.919Z,11.293223174312152
2023-01-05T22:31:18.452Z,11.36580132330646
2023-01-05T22:34:17.021Z,11.310564850650644
2023-01-05T22:37:17.078Z,11.347175067140778
2023-01-05T22:41:17.985Z,11.338825367342452
2023-01-05T22:44:16.457Z,11.295150027074943
2023-01-05T22:47:16.183Z,11.338183082774412
2023-01-05T22:51:18.616Z,11.352955628989822
2023-01-05T22:54:17.351Z,11.335613944547731
2023-01-05T22:57:17.086Z,11.294507742816132
2023-01-05T23:01:21.564Z,11.363232184297612
2023-01-05T23:04:17.073Z,11.363232184297612
2023-01-05T23:07:20.975Z,11.30606886017049
2023-01-05T23:11:19.989Z,11.279092921968914
2023-01-05T23:14:18.665Z,11.237986745848684
2023-01-05T23:17:17.044Z,11.262393535673619
2023-01-05T23:21:18.742Z,11.220645083384534
2023-01-05T23:24:16.708Z,11.142286501730359
2023-01-05T23:27:16.884Z,11.135863670169874
2023-01-05T23:31:16.869Z,11.168620115882732
2023-01-05T23:34:16.951Z,11.169904682622292
2023-01-05T23:37:16.777Z,11.157701299330892
2023-01-05T23:41:17.408Z,11.11916431024083
2023-01-05T23:44:17.452Z,11.071635379576128
2023-01-05T23:47:17.027Z,11.084481034056898
2023-01-05T23:51:17.812Z,11.008691698913845
2023-01-05T23:54:16.895Z,10.966943363381143
2023-01-05T23:57:16.759Z,11.000342030270257
